createdAt,value
2023-08-07T00:01:50.481Z,101082.25
2023-08-07T00:04:17.169Z,101076.06
2023-08-07T00:06:45.178Z,101070.91
2023-08-07T00:09:11.832Z,101085.94
2023-08-07T00:11:38.608Z,101080.78
2023-08-07T00:14:05.370Z,101076.66
2023-08-07T00:16:32.052Z,101073.78
2023-08-07T00:18:59.178Z,101085.72
2023-08-07T00:21:25.829Z,101064.72
2023-08-07T00:23:53.931Z,101062.25
2023-08-07T00:26:22.064Z,101070.28
2023-08-07T00:28:48.784Z,101069.47
2023-08-07T00:31:15.628Z,101082.63
2023-08-07T00:33:42.564Z,101076.25
2023-08-07T00:36:09.681Z,101083.84
2023-08-07T00:38:36.450Z,101082.44
2023-08-07T00:41:04.462Z,101087.16
2023-08-07T00:43:31.121Z,101089.84
2023-08-07T00:45:58.149Z,101096.84
2023-08-07T00:48:24.929Z,101091.47
2023-08-07T00:50:52.735Z,101091.47
2023-08-07T00:53:19.503Z,101098.69
2023-08-07T00:55:46.950Z,101101.56
2023-08-07T00:58:15.397Z,101107.28
2023-08-07T01:00:43.837Z,101103.59
2023-08-07T01:03:13.021Z,101109.97
2023-08-07T01:05:39.951Z,101111.03
2023-08-07T01:08:08.687Z,101101.94
2023-08-07T01:10:44.363Z,101113.28
2023-08-07T01:13:19.975Z,101106.91
2023-08-07T01:15:49.699Z,101116.38
2023-08-07T01:18:17.490Z,101113.91
2023-08-07T01:20:44.368Z,101106.25
2023-08-07T01:23:12.464Z,101114.28
2023-08-07T01:25:39.650Z,101113.47
2023-08-07T01:28:16.235Z,101116.97
2023-08-07T01:30:49.185Z,101122.75
2023-08-07T01:33:24.147Z,101120.06
2023-08-07T01:35:54.214Z,101126.84
2023-08-07T01:38:25.385Z,101122.31
2023-08-07T01:40:53.904Z,101124.81
2023-08-07T01:43:21.055Z,101121.09
2023-08-07T01:45:47.827Z,101130.97
2023-08-07T01:48:15.799Z,101118.44
2023-08-07T01:50:42.861Z,101119.25
2023-08-07T01:53:09.839Z,101113.91
2023-08-07T01:55:38.102Z,101122.75
2023-08-07T01:58:04.901Z,101123.59
2023-08-07T02:00:32.623Z,101129.75
2023-08-07T02:02:59.640Z,101125.25
2023-08-07T02:05:26.408Z,101134.69
2023-08-07T02:07:53.148Z,101132.22
2023-08-07T02:10:20.107Z,101136.53
2023-08-07T02:12:48.244Z,101135.50
2023-08-07T02:15:15.041Z,101137.38
2023-08-07T02:17:42.768Z,101134.69
2023-08-07T02:20:10.839Z,101145.38
2023-08-07T02:22:37.604Z,101140.03
2023-08-07T02:25:04.891Z,101147.25
2023-08-07T02:27:31.619Z,101148.06
2023-08-07T02:29:59.831Z,101149.72
2023-08-07T02:32:26.541Z,101148.69
2023-08-07T02:34:53.540Z,101147.47
2023-08-07T02:37:21.893Z,101157.13
2023-08-07T02:39:48.801Z,101145.63
2023-08-07T02:42:15.552Z,101153.44
2023-08-07T02:44:42.417Z,101153.44
2023-08-07T02:47:10.752Z,101159.81
2023-08-07T02:49:37.449Z,101153.66
2023-08-07T02:52:04.830Z,101151.78
2023-08-07T02:54:31.648Z,101162.09
2023-08-07T02:56:58.487Z,101156.72
2023-08-07T02:59:25.251Z,101153.03
2023-08-07T03:01:52.081Z,101156.09
2023-08-07T03:04:20.175Z,101149.91
2023-08-07T03:06:47.055Z,101143.75
2023-08-07T03:09:14.076Z,101140.88
2023-08-07T03:11:41.010Z,101148.31
2023-08-07T03:14:07.866Z,101139.66
2023-08-07T03:16:34.549Z,101141.50
2023-08-07T03:19:01.213Z,101142.31
2023-08-07T03:21:29.363Z,101143.34
2023-08-07T03:23:56.174Z,101140.66
2023-08-07T03:26:23.039Z,101138.00
2023-08-07T03:28:50.428Z,101139.22
2023-08-07T03:31:17.387Z,101138.00
2023-08-07T03:33:44.174Z,101135.50
2023-08-07T03:36:11.074Z,101132.22
2023-08-07T03:38:39.237Z,101132.00
2023-08-07T03:41:05.989Z,101128.50
2023-08-07T03:43:32.745Z,101130.16
2023-08-07T03:46:02.720Z,101127.91
2023-08-07T03:48:30.558Z,101136.53
2023-08-07T03:51:03.245Z,101115.38
2023-08-07T03:53:30.058Z,101119.88
2023-08-07T03:55:58.064Z,101132.44
2023-08-07T03:58:24.771Z,101121.94
2023-08-07T04:00:52.039Z,101126.47
2023-08-07T04:03:19.453Z,101129.75
2023-08-07T04:05:46.215Z,101121.94
2023-08-07T04:08:12.902Z,101116.59
2023-08-07T04:10:39.545Z,101114.94
2023-08-07T04:13:07.518Z,101116.78
2023-08-07T04:15:34.468Z,101118.63
2023-08-07T04:18:02.296Z,101113.28
2023-08-07T04:20:29.077Z,101114.31
2023-08-07T04:22:55.920Z,101125.00
2023-08-07T04:25:22.693Z,101118.00
2023-08-07T04:27:49.339Z,101132.19
2023-08-07T04:30:17.509Z,101136.72
2023-08-07T04:32:44.272Z,101138.38
2023-08-07T04:35:11.095Z,101130.34
2023-08-07T04:37:37.748Z,101141.88
2023-08-07T04:40:05.954Z,101141.69
2023-08-07T04:42:33.646Z,101139.84
2023-08-07T04:45:00.428Z,101137.97
2023-08-07T04:47:29.654Z,101145.00
2023-08-07T04:49:56.306Z,101143.97
2023-08-07T04:52:26.767Z,101152.81
2023-08-07T04:54:53.781Z,101150.94
2023-08-07T04:57:20.494Z,101148.25
2023-08-07T04:59:47.165Z,101153.41
2023-08-07T05:02:13.990Z,101155.06
2023-08-07T05:04:42.024Z,101161.25
2023-08-07T05:07:08.953Z,101158.56
2023-08-07T05:09:35.636Z,101163.91
2023-08-07T05:12:02.378Z,101161.88
2023-08-07T05:14:30.603Z,101159.00
2023-08-07T05:16:58.564Z,101164.97
2023-08-07T05:19:25.305Z,101165.16
2023-08-07T05:21:53.481Z,101170.50
2023-08-07T05:24:20.584Z,101174.63
2023-08-07T05:26:47.448Z,101173.63
2023-08-07T05:29:14.197Z,101172.78
2023-08-07T05:31:40.971Z,101185.97
2023-08-07T05:34:07.817Z,101180.63
2023-08-07T05:36:34.708Z,101195.66
2023-08-07T05:39:03.489Z,101194.63
2023-08-07T05:41:30.170Z,101203.44
2023-08-07T05:43:56.889Z,101201.59
2023-08-07T05:46:23.596Z,101206.75
2023-08-07T05:48:50.390Z,101207.78
2023-08-07T05:51:17.122Z,101215.63
2023-08-07T05:53:43.830Z,101215.41
2023-08-07T05:56:11.966Z,101212.75
2023-08-07T05:58:38.689Z,101213.56
2023-08-07T06:01:06.730Z,101218.72
2023-08-07T06:03:33.905Z,101213.97
2023-08-07T06:06:00.775Z,101226.97
2023-08-07T06:08:27.423Z,101223.25
2023-08-07T06:10:54.404Z,101226.97
2023-08-07T06:13:34.352Z,101227.59
2023-08-07T06:16:02.665Z,101236.22
2023-08-07T06:18:29.501Z,101240.75
2023-08-07T06:20:57.391Z,101247.16
2023-08-07T06:23:24.321Z,101253.72
2023-08-07T06:25:54.775Z,101257.22
2023-08-07T06:28:25.628Z,101252.69
2023-08-07T06:30:52.615Z,101251.88
2023-08-07T06:33:19.348Z,101255.38
2023-08-07T06:35:46.115Z,101262.59
2023-08-07T06:38:12.953Z,101264.00
2023-08-07T06:40:39.733Z,101263.00
2023-08-07T06:43:06.518Z,101273.31
2023-08-07T06:45:34.975Z,101264.25
2023-08-07T06:48:01.703Z,101264.84
2023-08-07T06:50:28.442Z,101268.16
2023-08-07T06:52:55.493Z,101270.44
2023-08-07T06:55:22.369Z,101275.59
2023-08-07T06:57:49.331Z,101278.88
2023-08-07T07:00:17.445Z,101279.72
2023-08-07T07:02:47.039Z,101268.59
2023-08-07T07:05:14.410Z,101283.41
2023-08-07T07:07:41.416Z,101275.81
2023-08-07T07:10:09.071Z,101285.09
2023-08-07T07:12:35.870Z,101282.84
2023-08-07T07:15:03.073Z,101298.50
2023-08-07T07:17:29.938Z,101281.00
2023-08-07T07:19:58.111Z,101288.59
2023-08-07T07:22:25.052Z,101304.09
2023-08-07T07:24:51.754Z,101306.34
2023-08-07T07:27:18.971Z,101313.97
2023-08-07T07:29:46.736Z,101310.09
2023-08-07T07:32:13.493Z,101320.19
2023-08-07T07:34:40.414Z,101315.66
2023-08-07T07:37:08.716Z,101318.13
2023-08-07T07:39:36.224Z,101335.81
2023-08-07T07:42:04.710Z,101321.81
2023-08-07T07:44:32.892Z,101337.91
2023-08-07T07:46:59.817Z,101336.88
2023-08-07T07:49:26.944Z,101342.00
2023-08-07T07:51:53.826Z,101336.91
2023-08-07T07:54:22.224Z,101337.94
2023-08-07T07:56:48.972Z,101332.78
2023-08-07T07:59:15.855Z,101326.00
2023-08-07T08:01:42.848Z,101337.13
2023-08-07T08:04:11.249Z,101347.66
2023-08-07T08:06:39.021Z,101359.19
2023-08-07T08:09:05.759Z,101349.50
2023-08-07T08:11:34.333Z,101355.88
2023-08-07T08:14:01.196Z,101365.19
2023-08-07T08:16:27.911Z,101382.06
2023-08-07T08:18:54.637Z,101362.28
2023-08-07T08:21:21.500Z,101371.78
2023-08-07T08:23:48.253Z,101369.72
2023-08-07T08:26:16.456Z,101375.69
2023-08-07T08:28:44.590Z,101373.00
2023-08-07T08:31:11.330Z,101391.56
2023-08-07T08:33:38.056Z,101387.66
2023-08-07T08:36:05.389Z,101389.50
2023-08-07T08:38:35.156Z,101385.38
2023-08-07T08:41:04.909Z,101382.94
2023-08-07T08:43:36.463Z,101389.50
2023-08-07T08:46:06.217Z,101392.81
2023-08-07T08:48:36.132Z,101398.38
2023-08-07T08:51:04.972Z,101409.75
2023-08-07T08:53:32.753Z,101417.78
2023-08-07T08:56:00.750Z,101413.00
2023-08-07T08:58:27.961Z,101413.44
2023-08-07T09:00:55.208Z,101415.50
2023-08-07T09:03:25.747Z,101419.19
2023-08-07T09:05:55.479Z,101419.19
2023-08-07T09:08:24.209Z,101421.47
2023-08-07T09:10:51.661Z,101423.34
2023-08-07T09:13:23.765Z,101421.25
2023-08-07T09:15:51.967Z,101416.72
2023-08-07T09:18:20.302Z,101427.03
2023-08-07T09:20:49.361Z,101421.06
2023-08-07T09:23:17.707Z,101428.28
2023-08-07T09:25:45.274Z,101421.28
2023-08-07T09:28:12.891Z,101425.84
2023-08-07T09:30:40.328Z,101421.69
2023-08-07T09:33:07.453Z,101428.91
2023-08-07T09:35:35.002Z,101433.25
2023-08-07T09:38:03.654Z,101428.94
2023-08-07T09:40:30.910Z,101441.72
2023-08-07T09:42:57.862Z,101449.31
2023-08-07T09:45:26.552Z,101453.91
2023-08-07T09:48:00.781Z,101459.47
2023-08-07T09:50:30.204Z,101456.16
2023-08-07T09:52:57.516Z,101453.47
2023-08-07T09:55:25.644Z,101451.63
2023-08-07T09:57:52.546Z,101449.56
2023-08-07T10:00:23.191Z,101451.81
2023-08-07T10:02:52.998Z,101449.56
2023-08-07T10:05:20.227Z,101449.75
2023-08-07T10:07:48.499Z,101463.34
2023-08-07T10:10:15.761Z,101461.75
2023-08-07T10:12:47.320Z,101457.59
2023-08-07T10:15:15.348Z,101459.88
2023-08-07T10:17:42.726Z,101456.13
2023-08-07T10:20:10.779Z,101463.38
2023-08-07T10:22:41.048Z,101457.56
2023-08-07T10:25:08.985Z,101468.31
2023-08-07T10:27:39.495Z,101459.22
2023-08-07T10:30:13.302Z,101468.72
2023-08-07T10:32:43.555Z,101471.63
2023-08-07T10:35:10.376Z,101477.81
2023-08-07T10:37:41.619Z,101481.34
2023-08-07T10:40:13.826Z,101485.06
2023-08-07T10:42:56.476Z,101478.03
2023-08-07T10:45:25.552Z,101486.06
2023-08-07T10:48:03.046Z,101477.00
2023-08-07T10:50:31.460Z,101496.00
2023-08-07T10:53:01.495Z,101490.63
2023-08-07T10:55:32.503Z,101495.78
2023-08-07T10:58:00.635Z,101497.22
2023-08-07T11:00:29.301Z,101495.34
2023-08-07T11:02:59.393Z,101496.41
2023-08-07T11:05:26.686Z,101501.78
2023-08-07T11:07:55.146Z,101507.94
2023-08-07T11:10:21.929Z,101497.22
2023-08-07T11:12:49.831Z,101504.66
2023-08-07T11:15:16.739Z,101510.41
2023-08-07T11:17:47.360Z,101509.81
2023-08-07T11:20:14.369Z,101502.16
2023-08-07T11:22:41.435Z,101500.47
2023-08-07T11:25:12.082Z,101492.63
2023-08-07T11:27:44.457Z,101500.66
2023-08-07T11:30:13.327Z,101494.00
2023-08-07T11:32:40.202Z,101498.75
2023-08-07T11:35:12.120Z,101496.25
2023-08-07T11:37:46.980Z,101502.44
2023-08-07T11:40:13.716Z,101509.47
2023-08-07T11:42:41.493Z,101506.78
2023-08-07T11:45:09.932Z,101510.94
2023-08-07T11:47:37.012Z,101498.06
2023-08-07T11:50:05.003Z,101507.97
2023-08-07T11:52:33.328Z,101506.53
2023-08-07T11:55:03.330Z,101502.81
2023-08-07T11:57:31.190Z,101516.84
2023-08-07T12:00:00.615Z,101516.44
2023-08-07T12:02:27.547Z,101517.69
2023-08-07T12:04:59.010Z,101507.97
2023-08-07T12:07:28.649Z,101520.19
2023-08-07T12:09:57.830Z,101516.84
2023-08-07T12:12:24.556Z,101531.34
2023-08-07T12:14:54.020Z,101522.84
2023-08-07T12:17:22.763Z,101520.31
2023-08-07T12:19:51.316Z,101522.38
2023-08-07T12:22:21.607Z,101523.38
2023-08-07T12:24:48.612Z,101519.00
2023-08-07T12:27:16.695Z,101524.56
2023-08-07T12:29:43.411Z,101527.44
2023-08-07T12:32:10.969Z,101523.88
2023-08-07T12:35:15.081Z,101514.94
2023-08-07T12:37:26.700Z,101515.09
2023-08-07T12:42:25.585Z,101512.34
2023-08-07T12:44:52.633Z,101518.94
2023-08-07T12:47:19.417Z,101528.03
2023-08-07T12:49:48.878Z,101526.38
2023-08-07T12:52:15.795Z,101526.19
2023-08-07T12:54:42.471Z,101508.78
2023-08-07T12:57:09.154Z,101518.72
2023-08-07T12:59:37.198Z,101527.41
2023-08-07T13:02:05.140Z,101521.72
2023-08-07T13:04:34.558Z,101528.78
2023-08-07T13:07:01.622Z,101528.38
2023-08-07T13:09:28.820Z,101532.72
2023-08-07T13:11:55.569Z,101525.66
2023-08-07T13:14:22.344Z,101525.41
2023-08-07T13:16:50.955Z,101530.50
2023-08-07T13:19:19.307Z,101524.47
2023-08-07T13:21:46.096Z,101526.28
2023-08-07T13:24:13.584Z,101525.44
2023-08-07T13:26:45.890Z,101522.06
2023-08-07T13:29:13.031Z,101518.53
2023-08-07T13:31:39.733Z,101524.88
2023-08-07T13:34:09.588Z,101518.88
2023-08-07T13:36:37.358Z,101521.91
2023-08-07T13:39:04.249Z,101526.28
2023-08-07T13:41:33.542Z,101523.72
2023-08-07T13:44:00.296Z,101521.03
2023-08-07T13:46:27.103Z,101536.97
2023-08-07T13:48:53.993Z,101533.47
2023-08-07T13:51:22.567Z,101527.72
2023-08-07T13:53:49.396Z,101532.69
2023-08-07T13:56:16.297Z,101540.16
2023-08-07T13:58:43.497Z,101535.84
2023-08-07T14:01:10.415Z,101530.81
2023-08-07T14:03:37.255Z,101530.97
2023-08-07T14:06:04.156Z,101533.03
2023-08-07T14:08:33.977Z,101527.19
2023-08-07T14:11:01.056Z,101529.44
2023-08-07T14:13:27.920Z,101545.97
2023-08-07T14:15:54.633Z,101534.97
2023-08-07T14:18:21.395Z,101534.75
2023-08-07T14:21:01.368Z,101548.03
2023-08-07T14:23:30.473Z,101550.09
2023-08-07T14:25:59.559Z,101547.25
2023-08-07T14:28:28.551Z,101548.97
2023-08-07T14:30:59.762Z,101551.28
2023-08-07T14:33:27.004Z,101557.53
2023-08-07T14:35:53.725Z,101561.28
2023-08-07T14:38:20.476Z,101557.97
2023-08-07T14:40:47.335Z,101555.75
2023-08-07T14:43:15.433Z,101562.38
2023-08-07T14:45:42.288Z,101561.41
2023-08-07T14:48:09.157Z,101562.81
2023-08-07T14:50:35.944Z,101561.63
2023-08-07T14:53:02.823Z,101562.47
2023-08-07T14:55:29.583Z,101569.03
2023-08-07T14:57:56.466Z,101564.09
2023-08-07T15:00:24.638Z,101569.47
2023-08-07T15:02:51.347Z,101571.56
2023-08-07T15:05:18.347Z,101568.03
2023-08-07T15:07:45.055Z,101566.59
2023-08-07T15:10:12.007Z,101566.16
2023-08-07T15:12:38.786Z,101565.94
2023-08-07T15:15:07.438Z,101552.66
2023-08-07T15:17:35.479Z,101564.66
2023-08-07T15:20:02.625Z,101566.66
2023-08-07T15:22:29.339Z,101564.38
2023-08-07T15:24:56.129Z,101567.44
2023-08-07T15:27:22.987Z,101551.69
2023-08-07T15:29:49.829Z,101569.47
2023-08-07T15:32:20.783Z,101571.78
2023-08-07T15:34:49.355Z,101576.34
2023-08-07T15:37:16.191Z,101566.81
2023-08-07T15:39:44.023Z,101582.16
2023-08-07T15:42:10.814Z,101580.13
2023-08-07T15:44:39.552Z,101581.19
2023-08-07T15:47:07.817Z,101577.06
2023-08-07T15:49:34.560Z,101582.66
2023-08-07T15:52:02.881Z,101575.41
2023-08-07T15:54:29.585Z,101581.22
2023-08-07T15:56:58.855Z,101586.47
2023-08-07T15:59:28.029Z,101588.53
2023-08-07T16:01:54.752Z,101590.41
2023-08-07T16:04:21.509Z,101584.81
2023-08-07T16:06:48.464Z,101590.41
2023-08-07T16:09:16.616Z,101597.88
2023-08-07T16:11:43.431Z,101595.84
2023-08-07T16:14:10.865Z,101599.22
2023-08-07T16:16:39.079Z,101594.25
2023-08-07T16:19:05.792Z,101600.28
2023-08-07T16:21:32.533Z,101602.38
2023-08-07T16:23:59.205Z,101595.53
2023-08-07T16:26:27.322Z,101594.50
2023-08-07T16:28:54.066Z,101591.44
2023-08-07T16:31:20.841Z,101598.06
2023-08-07T16:33:47.563Z,101589.00
2023-08-07T16:36:14.402Z,101591.50
2023-08-07T16:38:41.129Z,101590.28
2023-08-07T16:41:07.971Z,101585.34
2023-08-07T16:43:36.309Z,101586.38
2023-08-07T16:46:03.072Z,101584.56
2023-08-07T16:48:30.947Z,101583.31
2023-08-07T16:53:28.819Z,101577.97
2023-08-07T16:55:55.541Z,101577.59
2023-08-07T16:58:23.809Z,101576.34
2023-08-07T17:00:53.091Z,101569.50
2023-08-07T17:03:19.907Z,101575.72
2023-08-07T17:05:46.682Z,101570.59
2023-08-07T17:08:13.441Z,101572.44
2023-08-07T17:10:40.148Z,101565.41
2023-08-07T17:13:06.968Z,101571.81
2023-08-07T17:15:33.901Z,101566.84
2023-08-07T17:18:04.002Z,101567.69
2023-08-07T17:20:31.800Z,101574.94
2023-08-07T17:22:58.815Z,101578.06
2023-08-07T17:25:25.477Z,101573.09
2023-08-07T17:27:52.217Z,101573.28
2023-08-07T17:30:18.998Z,101568.31
2023-08-07T17:32:45.795Z,101564.81
2023-08-07T17:35:13.970Z,101568.53
2023-08-07T17:37:40.738Z,101563.16
2023-08-07T17:40:08.406Z,101556.75
2023-08-07T17:42:35.220Z,101561.09
2023-08-07T17:45:03.227Z,101547.22
2023-08-07T17:47:30.105Z,101559.84
2023-08-07T17:49:56.884Z,101558.22
2023-08-07T17:52:26.410Z,101553.88
2023-08-07T17:54:53.444Z,101553.06
2023-08-07T17:57:20.164Z,101554.09
2023-08-07T17:59:48.052Z,101552.22
2023-08-07T18:02:14.961Z,101556.56
2023-08-07T18:04:43.464Z,101546.22
2023-08-07T18:07:10.564Z,101552.63
2023-08-07T18:09:38.781Z,101549.94
2023-08-07T18:12:06.079Z,101549.94
2023-08-07T18:14:35.884Z,101536.50
2023-08-07T18:17:02.839Z,101541.28
2023-08-07T18:19:29.939Z,101544.19
2023-08-07T18:21:56.701Z,101547.91
2023-08-07T18:24:24.051Z,101538.41
2023-08-07T18:26:52.322Z,101536.75
2023-08-07T18:29:19.086Z,101538.59
2023-08-07T18:31:45.906Z,101545.03
2023-08-07T18:34:13.150Z,101534.28
2023-08-07T18:36:40.966Z,101531.59
2023-08-07T18:39:07.906Z,101529.75
2023-08-07T18:41:34.709Z,101538.84
2023-08-07T18:44:03.450Z,101530.16
2023-08-07T18:46:30.137Z,101534.69
2023-08-07T18:48:56.849Z,101526.63
2023-08-07T18:51:23.878Z,101529.31
2023-08-07T18:53:50.554Z,101527.88
2023-08-07T18:56:18.662Z,101527.28
2023-08-07T18:58:45.341Z,101525.84
2023-08-07T19:01:13.614Z,101520.66
2023-08-07T19:03:40.635Z,101524.00
2023-08-07T19:06:08.003Z,101524.19
2023-08-07T19:08:35.454Z,101521.94
2023-08-07T19:11:02.317Z,101519.47
2023-08-07T19:13:29.228Z,101525.25
2023-08-07T19:15:56.939Z,101524.63
2023-08-07T19:18:25.752Z,101527.97
2023-08-07T19:20:52.843Z,101531.09
2023-08-07T19:23:19.595Z,101529.84
2023-08-07T19:25:46.398Z,101521.97
2023-08-07T19:28:14.024Z,101520.97
2023-08-07T19:30:44.363Z,101524.09
2023-08-07T19:33:19.162Z,101523.47
2023-08-07T19:35:47.548Z,101516.84
2023-08-07T19:38:16.039Z,101519.13
2023-08-07T19:40:42.889Z,101521.19
2023-08-07T19:43:09.873Z,101526.75
2023-08-07T19:45:36.719Z,101520.78
2023-08-07T19:48:03.927Z,101520.16
2023-08-07T19:50:30.683Z,101516.03
2023-08-07T19:52:58.747Z,101519.75
2023-08-07T19:55:26.315Z,101527.19
2023-08-07T19:57:53.111Z,101530.09
2023-08-07T20:00:20.047Z,101518.72
2023-08-07T20:02:46.797Z,101519.97
2023-08-07T20:05:13.537Z,101517.66
2023-08-07T20:07:40.284Z,101504.66
2023-08-07T20:10:10.819Z,101500.34
2023-08-07T20:12:37.966Z,101504.88
2023-08-07T20:15:05.216Z,101502.41
2023-08-07T20:17:32.297Z,101501.13
2023-08-07T20:19:59.201Z,101503.44
2023-08-07T20:22:25.896Z,101502.78
2023-08-07T20:24:52.607Z,101498.88
2023-08-07T20:27:20.697Z,101500.94
2023-08-07T20:29:47.534Z,101499.72
2023-08-07T20:32:14.860Z,101501.13
2023-08-07T20:34:42.836Z,101500.75
2023-08-07T20:37:09.635Z,101503.00
2023-08-07T20:39:36.485Z,101500.31
2023-08-07T20:42:03.695Z,101501.34
2023-08-07T20:44:31.753Z,101493.50
2023-08-07T20:46:58.814Z,101489.38
2023-08-07T20:49:25.668Z,101490.00
2023-08-07T20:51:52.383Z,101481.13
2023-08-07T20:54:19.164Z,101474.13
2023-08-07T20:56:46.049Z,101478.25
2023-08-07T20:59:12.887Z,101476.38
2023-08-07T21:01:44.733Z,101469.16
2023-08-07T21:04:11.691Z,101459.47
2023-08-07T21:06:38.386Z,101458.41
2023-08-07T21:09:05.167Z,101457.59
2023-08-07T21:11:32.099Z,101451.44
2023-08-07T21:13:59.762Z,101449.78
2023-08-07T21:16:26.598Z,101447.91
2023-08-07T21:18:56.150Z,101447.09
2023-08-07T21:21:25.517Z,101440.06
2023-08-07T21:23:52.358Z,101445.63
2023-08-07T21:26:19.854Z,101432.41
2023-08-07T21:28:46.969Z,101431.59
2023-08-07T21:31:13.780Z,101424.81
2023-08-07T21:33:40.799Z,101422.31
2023-08-07T21:36:08.922Z,101424.19
2023-08-07T21:38:35.957Z,101423.16
2023-08-07T21:41:02.745Z,101427.47
2023-08-07T21:43:30.470Z,101417.59
2023-08-07T21:45:57.224Z,101417.34
2023-08-07T21:48:24.074Z,101419.00
2023-08-07T21:50:50.830Z,101423.53
2023-08-07T21:53:19.046Z,101425.19
2023-08-07T21:55:46.041Z,101422.31
2023-08-07T21:58:12.888Z,101423.16
2023-08-07T22:00:40.279Z,101409.53
2023-08-07T22:03:07.190Z,101406.63
2023-08-07T22:05:35.436Z,101408.50
2023-08-07T22:08:02.258Z,101408.28
2023-08-07T22:10:31.058Z,101401.88
2023-08-07T22:12:57.809Z,101400.03
2023-08-07T22:15:24.562Z,101397.34
2023-08-07T22:17:51.345Z,101396.53
2023-08-07T22:20:18.449Z,101397.34
2023-08-07T22:22:46.147Z,101396.31
2023-08-07T22:25:13.123Z,101398.81
2023-08-07T22:27:41.662Z,101393.44
2023-08-07T22:30:09.410Z,101394.25
2023-08-07T22:32:36.999Z,101395.28
2023-08-07T22:35:04.430Z,101398.59
2023-08-07T22:37:31.108Z,101393.22
2023-08-07T22:39:57.799Z,101384.94
2023-08-07T22:42:24.608Z,101381.25
2023-08-07T22:44:52.744Z,101383.09
2023-08-07T22:47:20.748Z,101379.59
2023-08-07T22:49:47.432Z,101380.63
2023-08-07T22:52:14.135Z,101370.13
2023-08-07T22:54:40.880Z,101375.03
2023-08-07T22:57:07.666Z,101376.91
2023-08-07T22:59:34.394Z,101368.03
2023-08-07T23:02:02.692Z,101367.19
2023-08-07T23:04:29.583Z,101373.41
2023-08-07T23:06:56.288Z,101369.28
2023-08-07T23:09:23.770Z,101365.78
2023-08-07T23:11:50.686Z,101365.97
2023-08-07T23:14:17.456Z,101358.13
2023-08-07T23:16:45.613Z,101360.22
2023-08-07T23:19:13.917Z,101354.22
2023-08-07T23:21:40.698Z,101345.56
2023-08-07T23:24:07.588Z,101349.06
2023-08-07T23:26:34.351Z,101353.59
2023-08-07T23:29:02.746Z,101349.06
2023-08-07T23:31:29.523Z,101345.56
2023-08-07T23:33:56.262Z,101350.31
2023-08-07T23:36:24.363Z,101348.69
2023-08-07T23:38:51.646Z,101338.16
2023-08-07T23:41:18.571Z,101340.22
2023-08-07T23:43:45.435Z,101336.69
2023-08-07T23:46:12.509Z,101336.91
2023-08-07T23:48:40.024Z,101335.03
2023-08-07T23:51:06.843Z,101330.13
2023-08-07T23:53:35.006Z,101335.47
2023-08-07T23:56:01.842Z,101335.47
2023-08-07T23:58:28.719Z,101340.84
